Time;durP1;ratioP1;P1;durP2;ratioP2;P2;SDS_P1;SDS_P2;PMS_P1;PMS_P2;Temp;Humidity;BMP_temperature;BMP_pressure;BME280_temperature;BME280_humidity;BME280_pressure;Samples;Min_cycle;Max_cycle;Signal;HPM_P1;HPM_P2
2023/07/13 00:01:49;;;;;;;11.80;2.33;;;17.20;99.90;;;;;;5144372;23;20154;-86
2023/07/13 00:03:50;;;;;;;12.50;1.65;;;17.20;99.90;;;;;;5118134;23;20159;-87
2023/07/13 00:06:00;;;;;;;12.52;2.08;;;17.30;99.90;;;;;;5118186;23;20187;-94
2023/07/13 00:08:01;;;;;;;11.68;1.95;;;17.20;99.90;;;;;;5094225;23;20239;-86
2023/07/13 00:10:03;;;;;;;8.63;1.67;;;17.10;99.90;;;;;;5117746;23;20149;-86
2023/07/13 00:12:05;;;;;;;15.38;2.63;;;17.10;99.90;;;;;;5117612;23;20155;-86
2023/07/13 00:14:07;;;;;;;13.82;1.60;;;17.20;99.90;;;;;;5143593;23;20157;-86
2023/07/13 00:16:09;;;;;;;9.73;1.50;;;17.20;99.90;;;;;;5144045;23;20158;-86
2023/07/13 00:18:09;;;;;;;7.03;1.35;;;17.10;99.90;;;;;;5093184;23;20176;-86
2023/07/13 00:20:11;;;;;;;10.18;1.45;;;17.10;99.90;;;;;;5092253;23;20153;-87
2023/07/13 00:22:12;;;;;;;13.50;1.70;;;17.00;99.90;;;;;;5093234;23;20149;-87
2023/07/13 00:24:15;;;;;;;11.50;1.92;;;17.10;99.90;;;;;;5093162;23;20172;-86
2023/07/13 00:26:17;;;;;;;13.23;1.77;;;17.00;99.90;;;;;;5092996;23;20239;-86
2023/07/13 00:28:17;;;;;;;11.77;1.92;;;17.00;99.90;;;;;;5093157;23;20237;-86
2023/07/13 00:30:18;;;;;;;8.98;1.60;;;16.90;99.90;;;;;;5092909;23;20153;-86
2023/07/13 00:32:19;;;;;;;7.43;1.73;;;16.90;99.90;;;;;;5143485;23;20541;-86
2023/07/13 00:34:20;;;;;;;13.48;1.98;;;16.90;99.90;;;;;;5093077;23;20160;-86
2023/07/13 00:36:21;;;;;;;10.68;1.60;;;16.90;99.90;;;;;;5093253;23;20149;-86
2023/07/13 00:38:23;;;;;;;8.00;1.40;;;16.90;99.90;;;;;;5092781;23;20177;-86
2023/07/13 00:40:24;;;;;;;10.20;1.65;;;16.80;99.90;;;;;;5093529;23;20288;-93
2023/07/13 00:42:25;;;;;;;9.15;1.73;;;16.80;99.90;;;;;;5117716;23;20152;-87
2023/07/13 00:44:26;;;;;;;8.85;1.60;;;16.70;99.90;;;;;;5093177;23;20149;-86
2023/07/13 00:46:31;;;;;;;10.55;1.70;;;16.70;99.90;;;;;;5117769;23;20677;-86
2023/07/13 00:48:35;;;;;;;9.35;1.80;;;16.70;99.90;;;;;;5117743;23;20164;-86
2023/07/13 00:50:36;;;;;;;14.65;1.95;;;16.70;99.90;;;;;;5117761;23;20159;-86
2023/07/13 00:52:39;;;;;;;14.77;2.00;;;16.80;99.90;;;;;;5092775;23;20204;-86
2023/07/13 00:54:45;;;;;;;11.07;2.58;;;16.80;99.90;;;;;;5117588;23;20595;-86
2023/07/13 00:56:50;;;;;;;10.30;1.65;;;16.80;99.90;;;;;;5117502;23;20144;-86
2023/07/13 00:58:52;;;;;;;6.78;1.60;;;16.80;99.90;;;;;;5143581;23;20262;-86
2023/07/13 01:00:53;;;;;;;8.68;1.35;;;16.80;99.90;;;;;;5143845;23;20525;-86
2023/07/13 01:02:54;;;;;;;8.57;1.73;;;16.80;99.90;;;;;;5143875;23;20238;-87
2023/07/13 01:04:56;;;;;;;6.55;1.40;;;16.80;99.90;;;;;;5092857;23;20156;-87
2023/07/13 01:06:58;;;;;;;13.18;1.70;;;16.80;99.90;;;;;;5117563;23;20271;-86
2023/07/13 01:08:59;;;;;;;8.13;1.52;;;16.70;99.90;;;;;;5093161;23;20168;-86
2023/07/13 01:11:01;;;;;;;8.95;2.03;;;16.70;99.90;;;;;;5117798;23;20144;-86
2023/07/13 01:13:03;;;;;;;8.35;1.60;;;16.60;99.90;;;;;;5143704;23;20147;-86
2023/07/13 01:15:05;;;;;;;8.30;1.60;;;16.60;99.90;;;;;;5117708;23;20167;-86
2023/07/13 01:17:10;;;;;;;17.80;1.63;;;16.60;99.90;;;;;;5143587;23;20147;-86
2023/07/13 01:19:35;;;;;;;11.13;1.95;;;16.60;99.90;;;;;;5117418;23;20196;-86
2023/07/13 01:21:42;;;;;;;8.15;1.85;;;16.60;99.90;;;;;;5082322;23;20153;-86
2023/07/13 01:23:44;;;;;;;11.23;1.80;;;16.50;99.90;;;;;;5074314;23;20177;-86
2023/07/13 01:25:44;;;;;;;10.73;1.80;;;16.50;99.90;;;;;;5092757;23;20523;-86
2023/07/13 01:27:45;;;;;;;10.85;1.85;;;16.40;99.90;;;;;;5092780;23;20169;-86
2023/07/13 01:29:47;;;;;;;17.95;2.20;;;16.40;99.90;;;;;;5092525;23;20148;-86
2023/07/13 01:31:48;;;;;;;7.15;1.60;;;16.40;99.90;;;;;;5119402;23;20223;-85
2023/07/13 01:33:48;;;;;;;10.48;2.10;;;16.40;99.90;;;;;;5069571;23;20247;-86
2023/07/13 01:35:50;;;;;;;10.13;1.80;;;16.40;99.90;;;;;;5069594;23;20149;-85
2023/07/13 01:37:51;;;;;;;9.90;1.83;;;16.40;99.90;;;;;;5094376;23;20589;-86
2023/07/13 01:39:52;;;;;;;10.55;2.03;;;16.40;99.90;;;;;;5069553;23;20161;-86
2023/07/13 01:41:52;;;;;;;13.70;2.00;;;16.40;99.90;;;;;;5120242;23;20230;-86
2023/07/13 01:43:54;;;;;;;13.25;1.95;;;16.40;99.90;;;;;;5094428;23;20141;-86
2023/07/13 01:45:55;;;;;;;12.10;1.83;;;16.40;99.90;;;;;;5120275;23;20226;-86
2023/07/13 01:47:56;;;;;;;13.68;2.60;;;16.40;99.90;;;;;;5093916;23;20161;-86
2023/07/13 01:49:57;;;;;;;11.82;1.83;;;16.30;99.90;;;;;;5094466;23;20545;-86
2023/07/13 01:52:00;;;;;;;11.20;1.63;;;16.40;99.90;;;;;;5070069;23;20158;-86
2023/07/13 01:54:00;;;;;;;12.15;2.53;;;16.40;99.90;;;;;;5120107;23;20690;-86
2023/07/13 01:56:01;;;;;;;10.05;2.03;;;16.30;99.90;;;;;;5069689;23;20166;-86
2023/07/13 01:58:02;;;;;;;11.38;2.00;;;16.30;99.90;;;;;;5093701;23;20178;-86
2023/07/13 02:00:05;;;;;;;13.82;1.70;;;16.30;99.90;;;;;;5093937;23;20149;-86
2023/07/13 02:02:16;;;;;;;8.85;2.15;;;16.30;99.90;;;;;;5096271;23;20156;-87
2023/07/13 02:04:17;;;;;;;10.05;1.88;;;16.30;99.90;;;;;;5094406;23;20603;-87
2023/07/13 02:06:17;;;;;;;13.95;2.20;;;16.20;99.90;;;;;;5093619;23;20189;-86
2023/07/13 02:08:18;;;;;;;17.25;2.10;;;16.10;99.90;;;;;;5093626;23;20504;-86
2023/07/13 02:10:19;;;;;;;17.75;1.90;;;16.10;99.90;;;;;;5120426;23;20148;-86
2023/07/13 02:12:20;;;;;;;13.07;2.00;;;16.10;99.90;;;;;;5093840;23;20155;-86
2023/07/13 02:14:20;;;;;;;12.63;2.20;;;16.10;99.90;;;;;;5120107;23;20180;-87
2023/07/13 02:16:21;;;;;;;14.40;2.15;;;16.20;99.90;;;;;;5093745;23;20231;-87
2023/07/13 02:18:22;;;;;;;11.40;2.05;;;16.20;99.90;;;;;;5094015;23;20677;-86
2023/07/13 02:20:22;;;;;;;20.92;2.28;;;16.20;99.90;;;;;;5093795;23;20223;-86
2023/07/13 02:22:23;;;;;;;11.82;1.63;;;16.10;99.90;;;;;;5122590;23;20136;-88
2023/07/13 02:24:24;;;;;;;16.48;3.20;;;16.10;99.90;;;;;;5118530;23;20160;-86
2023/07/13 02:26:25;;;;;;;13.48;2.05;;;15.90;99.90;;;;;;5093659;23;20192;-86
2023/07/13 02:28:26;;;;;;;14.65;2.28;;;15.90;99.90;;;;;;5118577;23;20196;-86
2023/07/13 02:30:29;;;;;;;12.68;2.28;;;15.90;99.90;;;;;;5118520;23;20212;-86
2023/07/13 02:32:30;;;;;;;12.35;2.35;;;15.90;99.90;;;;;;5118473;23;20152;-87
2023/07/13 02:34:31;;;;;;;13.85;2.40;;;16.00;99.90;;;;;;5118296;23;20210;-86
2023/07/13 02:36:32;;;;;;;9.35;2.13;;;16.00;99.90;;;;;;5093803;23;20149;-87
2023/07/13 02:38:34;;;;;;;11.88;2.10;;;16.00;99.90;;;;;;5118719;23;20590;-86
2023/07/13 02:40:36;;;;;;;15.02;2.30;;;16.00;99.90;;;;;;5118680;23;20144;-85
2023/07/13 02:42:37;;;;;;;11.70;2.13;;;16.00;99.90;;;;;;5144865;23;20588;-86
2023/07/13 02:44:38;;;;;;;16.35;2.20;;;16.00;99.90;;;;;;5144441;23;20144;-86
2023/07/13 02:46:38;;;;;;;12.45;2.35;;;16.00;99.90;;;;;;5093850;23;20604;-86
2023/07/13 02:48:39;;;;;;;11.82;2.10;;;15.90;99.90;;;;;;5143093;23;20175;-86
2023/07/13 02:50:40;;;;;;;11.93;1.98;;;15.80;99.90;;;;;;5093784;23;20184;-86
2023/07/13 02:52:41;;;;;;;15.13;2.20;;;15.80;99.90;;;;;;5093605;23;20153;-87
2023/07/13 02:54:41;;;;;;;12.88;2.35;;;15.80;99.90;;;;;;5144551;23;20148;-86
2023/07/13 02:56:43;;;;;;;14.02;2.15;;;15.80;99.90;;;;;;5118066;23;20604;-86
2023/07/13 02:58:44;;;;;;;13.25;2.50;;;15.80;99.90;;;;;;5093777;23;20172;-87
2023/07/13 03:00:47;;;;;;;7.65;1.73;;;15.80;99.90;;;;;;5143158;23;20226;-87
2023/07/13 03:02:48;;;;;;;11.73;2.50;;;15.80;99.90;;;;;;5118389;23;20148;-86
2023/07/13 03:04:49;;;;;;;13.15;2.65;;;15.90;99.90;;;;;;5118185;23;20163;-86
2023/07/13 03:06:49;;;;;;;11.85;2.60;;;16.00;99.90;;;;;;5117959;23;20187;-86
2023/07/13 03:08:51;;;;;;;14.82;2.28;;;15.90;99.90;;;;;;5118291;23;20662;-86
2023/07/13 03:11:07;;;;;;;14.63;2.28;;;15.90;99.90;;;;;;5093427;23;20161;-86
2023/07/13 03:13:09;;;;;;;9.98;2.28;;;15.90;99.90;;;;;;5093744;23;20212;-86
2023/07/13 03:15:10;;;;;;;15.70;2.00;;;15.90;99.90;;;;;;5144438;23;20152;-86
2023/07/13 03:17:13;;;;;;;16.40;2.70;;;15.80;99.90;;;;;;5118260;23;20152;-86
2023/07/13 03:19:15;;;;;;;12.30;2.33;;;15.80;99.90;;;;;;5118121;23;20204;-86
2023/07/13 03:21:21;;;;;;;18.48;2.53;;;15.80;99.90;;;;;;5094318;23;20228;-86
2023/07/13 03:23:22;;;;;;;15.55;2.70;;;15.70;99.90;;;;;;5118036;23;20171;-86
2023/07/13 03:25:23;;;;;;;14.90;2.17;;;15.70;99.90;;;;;;5093465;23;20269;-86
2023/07/13 03:27:24;;;;;;;16.77;3.83;;;15.70;99.90;;;;;;5118156;23;20239;-86
2023/07/13 03:29:25;;;;;;;9.32;2.17;;;15.70;99.90;;;;;;5093457;23;20184;-86
2023/07/13 03:31:29;;;;;;;11.55;2.20;;;15.70;99.90;;;;;;5118199;23;20567;-86
2023/07/13 03:33:31;;;;;;;10.45;2.38;;;15.60;99.90;;;;;;5117985;23;20638;-86
2023/07/13 03:35:32;;;;;;;15.88;2.80;;;15.70;99.90;;;;;;5093523;23;20161;-86
2023/07/13 03:37:33;;;;;;;12.30;2.30;;;15.70;99.90;;;;;;5093641;23;20381;-85
2023/07/13 03:39:34;;;;;;;15.07;2.28;;;15.80;99.90;;;;;;5093298;23;20208;-86
2023/07/13 03:41:35;;;;;;;13.60;2.22;;;15.80;99.90;;;;;;5142848;23;20227;-86
2023/07/13 03:43:36;;;;;;;18.33;3.22;;;15.80;99.90;;;;;;5093236;23;20153;-86
2023/07/13 03:45:38;;;;;;;14.75;2.67;;;15.80;99.90;;;;;;5117748;23;20187;-86
2023/07/13 03:47:39;;;;;;;13.93;2.50;;;15.70;99.90;;;;;;5117567;23;20156;-86
2023/07/13 03:49:39;;;;;;;16.70;2.97;;;15.80;99.90;;;;;;5117923;23;20172;-86
2023/07/13 03:51:40;;;;;;;14.45;2.80;;;15.90;99.90;;;;;;5118379;23;20152;-86
2023/07/13 03:53:43;;;;;;;11.65;2.10;;;15.80;99.90;;;;;;5093396;23;20231;-86
2023/07/13 03:55:45;;;;;;;15.68;2.50;;;15.70;99.90;;;;;;5093392;23;20236;-87
2023/07/13 03:57:45;;;;;;;16.35;2.50;;;15.80;99.90;;;;;;5093131;23;20149;-85
2023/07/13 03:59:47;;;;;;;13.52;2.60;;;15.80;99.90;;;;;;5093270;23;20152;-86
2023/07/13 04:01:47;;;;;;;11.48;2.53;;;15.90;99.90;;;;;;5117794;23;20144;-86
2023/07/13 04:03:48;;;;;;;16.75;2.45;;;16.00;99.90;;;;;;5092976;23;20216;-86
2023/07/13 04:05:50;;;;;;;15.52;2.92;;;16.00;99.90;;;;;;5117773;23;20631;-85
2023/07/13 04:07:50;;;;;;;12.60;2.40;;;16.10;99.90;;;;;;5117987;23;20184;-86
2023/07/13 04:09:51;;;;;;;15.73;2.30;;;16.10;99.90;;;;;;5093226;23;20212;-86
2023/07/13 04:11:52;;;;;;;12.05;2.72;;;16.10;99.90;;;;;;5117781;23;20240;-86
2023/07/13 04:13:53;;;;;;;15.18;2.45;;;16.10;99.90;;;;;;5143939;23;20664;-86
2023/07/13 04:15:54;;;;;;;12.43;2.05;;;16.10;99.90;;;;;;5117878;23;20152;-86
2023/07/13 04:17:54;;;;;;;19.50;2.50;;;16.10;99.90;;;;;;5092802;23;20211;-87
2023/07/13 04:19:55;;;;;;;13.00;2.28;;;16.20;99.90;;;;;;5092507;23;20544;-86
2023/07/13 04:21:56;;;;;;;13.27;2.30;;;16.30;99.90;;;;;;5117680;23;20461;-86
2023/07/13 04:23:57;;;;;;;12.77;2.65;;;16.30;99.90;;;;;;5117413;23;20206;-86
2023/07/13 04:25:58;;;;;;;13.38;2.35;;;16.30;99.90;;;;;;5092802;23;20199;-87
2023/07/13 04:27:58;;;;;;;12.95;2.42;;;16.30;99.90;;;;;;5092672;23;20160;-86
2023/07/13 04:29:59;;;;;;;19.00;2.75;;;16.50;99.90;;;;;;5117435;23;20206;-86
2023/07/13 04:32:00;;;;;;;16.60;2.70;;;16.40;99.90;;;;;;5117722;23;20156;-86
2023/07/13 04:34:01;;;;;;;13.95;2.63;;;16.50;99.90;;;;;;5117395;23;20156;-86
2023/07/13 04:36:01;;;;;;;18.65;2.55;;;16.50;99.90;;;;;;5143915;23;20601;-86
2023/07/13 04:38:02;;;;;;;17.48;2.55;;;16.40;99.90;;;;;;5092926;23;20185;-86
2023/07/13 04:40:04;;;;;;;13.88;2.97;;;16.50;99.90;;;;;;5093379;23;20164;-86
2023/07/13 04:42:05;;;;;;;15.93;2.40;;;16.40;99.90;;;;;;5093059;23;20189;-86
2023/07/13 04:44:05;;;;;;;12.55;2.60;;;16.50;99.90;;;;;;5093249;23;20157;-86
2023/07/13 04:46:17;;;;;;;16.10;3.03;;;16.60;99.90;;;;;;5117423;23;20700;-87
2023/07/13 04:48:18;;;;;;;13.40;2.90;;;16.60;99.90;;;;;;5093152;23;20169;-86
2023/07/13 04:50:23;;;;;;;19.17;2.53;;;16.60;99.90;;;;;;5117506;23;20218;-86
2023/07/13 04:52:24;;;;;;;14.52;2.75;;;16.60;99.90;;;;;;5093102;23;20152;-86
2023/07/13 04:54:24;;;;;;;15.30;2.60;;;16.70;99.90;;;;;;5117466;23;20159;-87
2023/07/13 04:56:25;;;;;;;16.70;2.60;;;16.70;99.90;;;;;;5117582;23;20152;-87
2023/07/13 04:58:27;;;;;;;18.77;3.42;;;16.70;99.90;;;;;;5092741;23;20177;-86
2023/07/13 05:00:28;;;;;;;16.55;3.45;;;16.80;99.90;;;;;;5143961;23;20239;-86
2023/07/13 05:02:31;;;;;;;15.60;2.50;;;16.80;99.90;;;;;;5144415;23;20222;-86
2023/07/13 05:04:32;;;;;;;12.45;3.00;;;17.00;99.90;;;;;;5092807;23;20513;-87
2023/07/13 05:06:33;;;;;;;12.27;2.40;;;17.00;99.90;;;;;;5118323;23;20215;-87
2023/07/13 05:08:33;;;;;;;18.05;3.03;;;17.00;99.90;;;;;;5119720;23;20164;-87
2023/07/13 05:10:35;;;;;;;12.35;2.92;;;17.10;99.90;;;;;;5094393;23;20224;-86
2023/07/13 05:12:36;;;;;;;15.63;2.45;;;17.20;99.90;;;;;;5145373;23;20148;-87
2023/07/13 05:14:37;;;;;;;16.05;2.63;;;17.20;99.90;;;;;;5094712;23;20181;-87
2023/07/13 05:16:37;;;;;;;14.98;3.05;;;17.40;99.90;;;;;;5094642;23;20157;-87
2023/07/13 05:18:38;;;;;;;12.85;2.65;;;17.40;99.90;;;;;;5094849;23;20184;-87
2023/07/13 05:20:39;;;;;;;14.13;2.58;;;17.40;99.90;;;;;;5094694;23;20157;-87
2023/07/13 05:22:40;;;;;;;22.25;2.85;;;17.40;99.90;;;;;;5094401;23;20160;-87
2023/07/13 05:24:41;;;;;;;19.30;2.92;;;17.40;99.90;;;;;;5119098;23;20584;-88
2023/07/13 05:26:42;;;;;;;20.10;2.78;;;17.40;99.90;;;;;;5118833;23;20234;-87
2023/07/13 05:28:43;;;;;;;17.15;2.70;;;17.30;99.90;;;;;;5094132;23;20176;-88
2023/07/13 05:30:47;;;;;;;17.45;3.10;;;17.30;99.90;;;;;;5145581;23;20156;-87
2023/07/13 05:32:48;;;;;;;16.10;2.85;;;17.40;99.90;;;;;;5119598;23;20488;-87
2023/07/13 05:34:48;;;;;;;18.45;3.00;;;17.50;99.90;;;;;;5094602;23;20208;-86
2023/07/13 05:36:50;;;;;;;16.70;3.17;;;17.50;99.90;;;;;;5145206;23;20148;-87
2023/07/13 05:38:50;;;;;;;22.20;3.00;;;17.40;99.90;;;;;;5145716;23;20167;-87
2023/07/13 05:40:53;;;;;;;16.83;2.75;;;17.30;99.90;;;;;;5094429;23;20199;-86
2023/07/13 05:42:53;;;;;;;19.83;2.55;;;17.30;99.90;;;;;;5119111;23;20227;-87
2023/07/13 05:44:54;;;;;;;22.30;3.13;;;17.40;99.90;;;;;;5145349;23;20151;-87
2023/07/13 05:46:56;;;;;;;20.50;3.05;;;17.50;99.90;;;;;;5118915;23;20528;-86
2023/07/13 05:48:57;;;;;;;19.20;3.03;;;17.40;99.90;;;;;;5094579;23;20647;-86
2023/07/13 05:50:58;;;;;;;17.60;2.80;;;17.50;99.90;;;;;;5119123;23;20194;-87
2023/07/13 05:52:58;;;;;;;19.98;3.28;;;17.50;99.90;;;;;;5118591;23;20136;-87
2023/07/13 05:54:59;;;;;;;19.83;3.30;;;17.50;99.90;;;;;;5118971;23;20231;-87
2023/07/13 05:57:00;;;;;;;17.65;3.00;;;17.50;99.90;;;;;;5093981;23;20661;-88
2023/07/13 05:59:01;;;;;;;17.20;2.50;;;17.80;99.90;;;;;;5093855;23;20169;-87
2023/07/13 06:01:12;;;;;;;14.20;2.63;;;17.90;99.90;;;;;;5094301;23;20245;-87
2023/07/13 06:03:14;;;;;;;14.93;2.80;;;18.00;99.90;;;;;;5119134;23;20148;-88
2023/07/13 06:05:14;;;;;;;15.73;2.55;;;18.30;99.90;;;;;;5094435;23;20154;-87
2023/07/13 06:07:15;;;;;;;17.90;3.17;;;18.30;99.90;;;;;;5094061;23;20193;-88
2023/07/13 06:09:16;;;;;;;23.52;3.70;;;18.50;99.90;;;;;;5118725;23;20175;-87
2023/07/13 06:11:20;;;;;;;21.45;3.15;;;18.70;99.90;;;;;;5093908;23;20156;-87
2023/07/13 06:13:21;;;;;;;14.02;2.40;;;18.50;99.90;;;;;;5118571;23;20153;-87
2023/07/13 06:15:22;;;;;;;18.58;3.03;;;18.80;99.90;;;;;;5094081;23;20152;-86
2023/07/13 06:17:22;;;;;;;14.05;2.60;;;19.00;99.90;;;;;;5118184;23;20566;-87
2023/07/13 06:19:23;;;;;;;15.85;2.58;;;18.90;99.90;;;;;;5094086;23;20172;-87
2023/07/13 06:21:24;;;;;;;18.75;2.85;;;19.10;99.90;;;;;;5118493;23;20595;-87
2023/07/13 06:23:25;;;;;;;14.20;2.70;;;19.20;99.90;;;;;;5144656;23;20636;-88
2023/07/13 06:25:27;;;;;;;17.08;2.83;;;19.30;99.90;;;;;;5118445;23;20148;-88
2023/07/13 06:27:27;;;;;;;18.27;3.13;;;19.20;99.90;;;;;;5118923;23;20152;-88
2023/07/13 06:29:28;;;;;;;14.38;2.97;;;19.20;99.90;;;;;;5118568;23;20175;-88
2023/07/13 06:31:29;;;;;;;16.80;3.30;;;19.10;99.90;;;;;;5093581;23;20157;-87
2023/07/13 06:33:29;;;;;;;19.23;2.97;;;19.10;99.90;;;;;;5144597;23;20578;-87
2023/07/13 06:35:30;;;;;;;22.48;3.30;;;19.20;99.90;;;;;;5118598;23;20480;-87
2023/07/13 06:37:31;;;;;;;17.50;3.03;;;19.00;99.90;;;;;;5118870;23;20262;-87
2023/07/13 06:39:32;;;;;;;17.77;3.58;;;19.00;99.90;;;;;;5093606;23;20181;-87
2023/07/13 06:41:33;;;;;;;22.38;3.47;;;19.10;99.90;;;;;;5144876;23;20171;-87
2023/07/13 06:43:34;;;;;;;14.88;2.55;;;19.20;99.90;;;;;;5093907;23;20184;-88
2023/07/13 06:45:47;;;;;;;16.20;2.95;;;19.50;99.90;;;;;;5118156;23;20151;-87
2023/07/13 06:47:49;;;;;;;27.35;3.55;;;19.80;99.90;;;;;;5118470;23;20172;-89
2023/07/13 06:49:50;;;;;;;16.13;3.10;;;19.80;99.90;;;;;;5118181;23;20148;-88
2023/07/13 06:51:50;;;;;;;12.23;2.70;;;19.90;99.90;;;;;;5118559;23;20156;-88
2023/07/13 06:53:51;;;;;;;14.57;2.65;;;20.10;99.90;;;;;;5118430;23;20175;-90
2023/07/13 06:55:52;;;;;;;13.73;2.50;;;20.00;99.90;;;;;;5093838;23;20517;-88
2023/07/13 06:57:53;;;;;;;12.57;2.63;;;20.10;99.90;;;;;;5093487;23;20156;-88
2023/07/13 06:59:53;;;;;;;19.08;3.08;;;20.10;99.90;;;;;;5118148;23;20183;-88
2023/07/13 07:01:54;;;;;;;16.42;2.67;;;20.00;99.90;;;;;;5094023;23;20153;-87
2023/07/13 07:03:55;;;;;;;16.60;2.78;;;20.30;99.90;;;;;;5118401;23;20148;-94
2023/07/13 07:06:23;;;;;;;17.77;2.70;;;20.40;99.90;;;;;;5118300;23;20195;-87
2023/07/13 07:08:24;;;;;;;18.42;3.20;;;20.70;99.90;;;;;;5089831;23;20183;-88
2023/07/13 07:10:25;;;;;;;14.05;2.95;;;20.70;99.90;;;;;;5118146;23;20183;-88
2023/07/13 07:12:26;;;;;;;17.65;3.03;;;20.90;99.90;;;;;;5118492;23;20156;-88
2023/07/13 07:14:27;;;;;;;16.02;2.88;;;21.20;99.90;;;;;;5093259;23;20160;-88
2023/07/13 07:16:28;;;;;;;12.20;2.78;;;21.40;99.90;;;;;;5118406;23;20152;-88
2023/07/13 07:18:28;;;;;;;18.05;2.65;;;21.40;99.90;;;;;;5144354;23;20175;-87
2023/07/13 07:20:30;;;;;;;13.68;3.03;;;21.50;99.90;;;;;;5118170;23;20176;-88
2023/07/13 07:22:31;;;;;;;13.40;2.75;;;21.90;99.90;;;;;;5093541;23;20524;-87
2023/07/13 07:24:32;;;;;;;21.10;2.65;;;22.20;99.90;;;;;;5118226;23;20682;-87
2023/07/13 07:26:33;;;;;;;23.60;3.22;;;23.10;99.90;;;;;;5144065;23;20183;-88
2023/07/13 07:28:34;;;;;;;15.13;2.53;;;23.90;99.90;;;;;;5118474;23;20164;-88
2023/07/13 07:30:35;;;;;;;15.35;2.40;;;24.10;99.90;;;;;;5144337;23;20162;-89
2023/07/13 07:32:36;;;;;;;17.88;3.33;;;24.60;99.90;;;;;;5144598;23;20648;-88
2023/07/13 07:34:37;;;;;;;12.75;2.15;;;24.60;99.90;;;;;;5093995;23;20153;-87
2023/07/13 07:36:37;;;;;;;12.57;2.83;;;24.60;99.90;;;;;;5093419;23;20153;-88
2023/07/13 07:38:38;;;;;;;17.65;3.03;;;24.70;99.90;;;;;;5093623;23;20568;-88
2023/07/13 07:40:40;;;;;;;12.27;2.83;;;24.90;99.90;;;;;;5117869;23;20145;-88
2023/07/13 07:42:41;;;;;;;15.90;3.30;;;25.40;99.90;;;;;;5093715;23;20595;-95
2023/07/13 07:44:42;;;;;;;12.63;2.75;;;25.70;99.90;;;;;;5093497;23;20160;-96
2023/07/13 07:46:42;;;;;;;12.57;2.70;;;26.30;99.90;;;;;;5093443;23;20246;-88
2023/07/13 07:48:43;;;;;;;12.90;2.65;;;26.30;99.90;;;;;;5093212;23;20177;-88
2023/07/13 07:50:44;;;;;;;17.27;3.08;;;25.90;99.90;;;;;;5093130;23;20149;-87
2023/07/13 07:52:44;;;;;;;14.18;2.50;;;25.60;99.90;;;;;;5093280;23;20203;-88
2023/07/13 07:54:45;;;;;;;16.45;2.30;;;25.10;99.90;;;;;;5117794;23;20156;-88
2023/07/13 07:56:46;;;;;;;13.25;2.65;;;25.00;99.90;;;;;;5118287;23;20215;-88
2023/07/13 07:58:46;;;;;;;13.65;2.47;;;24.50;99.90;;;;;;5093732;23;20176;-94
2023/07/13 08:00:47;;;;;;;14.10;2.63;;;24.80;99.90;;;;;;5092850;23;20157;-88
2023/07/13 08:02:48;;;;;;;16.80;2.45;;;25.00;99.90;;;;;;5093206;23;20484;-87
2023/07/13 08:04:48;;;;;;;12.35;2.30;;;25.60;99.90;;;;;;5093527;23;20567;-88
2023/07/13 08:06:49;;;;;;;15.35;2.70;;;25.90;99.90;;;;;;5093854;23;20195;-87
2023/07/13 08:08:50;;;;;;;8.63;2.08;;;26.10;99.90;;;;;;5117642;23;20251;-88
2023/07/13 08:10:51;;;;;;;16.83;2.53;;;26.50;99.90;;;;;;5118313;23;20232;-89
2023/07/13 08:12:52;;;;;;;10.40;2.80;;;27.10;99.90;;;;;;5093553;23;20157;-90
2023/07/13 08:15:02;;;;;;;15.60;2.58;;;27.00;99.90;;;;;;5093160;23;20210;-89
2023/07/13 08:17:03;;;;;;;11.88;2.85;;;27.50;99.90;;;;;;5093813;23;20156;-88
2023/07/13 08:19:04;;;;;;;9.95;2.53;;;27.70;99.90;;;;;;5118895;23;20188;-95
2023/07/13 08:21:06;;;;;;;10.55;2.40;;;27.30;99.90;;;;;;5093472;23;20512;-88
2023/07/13 08:23:09;;;;;;;12.90;2.40;;;26.30;99.90;;;;;;5093839;23;20172;-87
2023/07/13 08:25:10;;;;;;;14.80;2.65;;;26.00;99.90;;;;;;5093309;23;20148;-88
2023/07/13 08:27:11;;;;;;;19.48;3.05;;;25.80;99.90;;;;;;5093106;23;20190;-89
2023/07/13 08:29:12;;;;;;;11.63;2.50;;;26.10;99.90;;;;;;5092947;23;20172;-89
2023/07/13 08:31:14;;;;;;;11.30;2.95;;;26.10;99.90;;;;;;5118022;23;20159;-89
2023/07/13 08:33:20;;;;;;;10.80;2.60;;;26.80;99.90;;;;;;5093417;23;20189;-89
2023/07/13 08:35:21;;;;;;;20.52;2.97;;;26.70;99.90;;;;;;5093241;23;20555;-88
2023/07/13 08:37:21;;;;;;;9.68;2.45;;;27.40;99.90;;;;;;5117882;23;20156;-88
2023/07/13 08:39:22;;;;;;;9.70;2.53;;;27.70;99.90;;;;;;5117327;23;20223;-88
2023/07/13 08:41:23;;;;;;;11.93;2.33;;;27.70;99.90;;;;;;5092825;23;20181;-89
2023/07/13 08:43:34;;;;;;;13.15;2.70;;;27.80;99.90;;;;;;5092748;23;20157;-88
2023/07/13 08:45:49;;;;;;;12.45;2.85;;;29.20;99.90;;;;;;5093361;23;20188;-89
2023/07/13 08:48:14;;;;;;;12.50;3.08;;;29.50;99.90;;;;;;5092913;23;20207;-89
2023/07/13 08:50:19;;;;;;;11.13;2.45;;;28.60;99.90;;;;;;5117968;23;20152;-89
2023/07/13 08:52:25;;;;;;;14.77;2.25;;;27.70;99.90;;;;;;5092930;23;20176;-88
2023/07/13 08:54:44;;;;;;;11.07;2.30;;;27.80;99.90;;;;;;5092942;23;20148;-87
2023/07/13 08:56:47;;;;;;;6.35;1.85;;;27.60;99.90;;;;;;5092895;23;20161;-88
2023/07/13 08:58:54;;;;;;;8.38;2.05;;;27.70;99.90;;;;;;5117413;23;20172;-87
2023/07/13 09:01:05;;;;;;;9.18;2.63;;;28.00;99.90;;;;;;5092864;23;20153;-89
2023/07/13 09:03:20;;;;;;;7.35;2.17;;;27.90;99.90;;;;;;5118593;23;20602;-88
2023/07/13 09:05:29;;;;;;;10.43;2.17;;;27.60;99.90;;;;;;5093141;23;20600;-88
2023/07/13 09:07:38;;;;;;;7.80;2.35;;;27.00;99.90;;;;;;5093290;23;20172;-88
2023/07/13 09:09:54;;;;;;;9.18;2.00;;;26.70;99.90;;;;;;5092769;23;20172;-88
2023/07/13 09:12:09;;;;;;;12.98;2.25;;;27.00;99.90;;;;;;5093190;23;20236;-88
2023/07/13 09:14:28;;;;;;;12.20;2.05;;;27.40;99.90;;;;;;5093025;23;20149;-88
2023/07/13 09:16:29;;;;;;;15.52;2.40;;;27.20;99.90;;;;;;5117490;23;20187;-88
2023/07/13 09:18:32;;;;;;;9.02;2.45;;;27.00;99.90;;;;;;5092731;23;20172;-87
2023/07/13 09:20:38;;;;;;;11.63;2.53;;;27.50;99.90;;;;;;5093498;23;20239;-89
2023/07/13 09:22:39;;;;;;;9.00;2.40;;;27.90;99.90;;;;;;5092711;23;20157;-88
2023/07/13 09:25:16;;;;;;;10.68;2.45;;;28.00;99.90;;;;;;5117900;23;20202;-93
2023/07/13 09:27:24;;;;;;;10.07;1.95;;;28.80;99.90;;;;;;5092730;23;20188;-88
2023/07/13 09:29:34;;;;;;;8.00;2.13;;;28.70;99.90;;;;;;5118251;23;20172;-87
2023/07/13 09:31:42;;;;;;;8.82;1.80;;;29.00;99.90;;;;;;5093121;23;20153;-88
2023/07/13 09:33:43;;;;;;;11.23;2.20;;;29.50;99.90;;;;;;5117687;23;20599;-89
2023/07/13 09:35:44;;;;;;;9.30;2.25;;;30.00;99.90;;;;;;5117458;23;20215;-88
2023/07/13 09:37:46;;;;;;;13.73;2.53;;;30.60;99.90;;;;;;5092778;23;20611;-88
2023/07/13 09:39:47;;;;;;;11.13;2.58;;;31.00;99.90;;;;;;5093174;23;20219;-88
2023/07/13 09:42:00;;;;;;;11.63;2.30;;;31.70;99.90;;;;;;5092812;23;20151;-88
2023/07/13 09:44:13;;;;;;;9.75;2.35;;;32.40;99.90;;;;;;5092619;23;20152;-88
2023/07/13 09:46:24;;;;;;;12.63;2.35;;;33.00;99.90;;;;;;5092409;23;20203;-89
2023/07/13 09:48:25;;;;;;;9.43;2.00;;;32.60;99.90;;;;;;5092359;23;20167;-86
2023/07/13 09:50:26;;;;;;;9.85;2.30;;;31.40;99.90;;;;;;5117272;23;20152;-86
2023/07/13 09:52:38;;;;;;;7.30;2.35;;;29.90;99.90;;;;;;5092960;23;20149;-88
2023/07/13 09:54:39;;;;;;;5.43;1.75;;;29.10;99.90;;;;;;5094449;23;20153;-87
2023/07/13 09:56:39;;;;;;;10.07;2.17;;;28.30;99.90;;;;;;5119013;23;20156;-88
2023/07/13 09:58:40;;;;;;;10.23;2.10;;;28.30;99.90;;;;;;5094135;23;20202;-87
2023/07/13 10:00:43;;;;;;;9.88;1.80;;;28.40;99.90;;;;;;5094391;23;20239;-90
2023/07/13 10:02:44;;;;;;;7.25;1.60;;;29.00;99.90;;;;;;5120951;23;20800;-88
2023/07/13 10:04:45;;;;;;;6.95;1.80;;;29.00;99.90;;;;;;5119902;23;20263;-89
2023/07/13 10:06:46;;;;;;;7.90;2.00;;;28.70;99.90;;;;;;5094845;23;20192;-90
2023/07/13 10:08:48;;;;;;;9.75;2.50;;;27.70;99.90;;;;;;5118750;23;20164;-88
2023/07/13 10:10:57;;;;;;;9.68;2.17;;;26.20;99.90;;;;;;5094268;23;20224;-89
2023/07/13 10:12:58;;;;;;;11.35;2.30;;;25.30;99.90;;;;;;5119806;23;20179;-88
2023/07/13 10:15:00;;;;;;;9.63;2.25;;;24.40;99.90;;;;;;5094402;23;20157;-88
2023/07/13 10:17:04;;;;;;;10.85;2.03;;;24.20;99.90;;;;;;5094844;23;20153;-88
2023/07/13 10:19:06;;;;;;;9.07;2.35;;;24.20;99.90;;;;;;5094936;23;20176;-88
2023/07/13 10:21:14;;;;;;;9.02;2.20;;;23.80;99.90;;;;;;5094028;23;20160;-88
2023/07/13 10:23:24;;;;;;;13.25;2.28;;;23.70;99.90;;;;;;5118730;23;20178;-89
2023/07/13 10:25:29;;;;;;;10.63;2.40;;;23.50;99.90;;;;;;5094363;23;20161;-89
2023/07/13 10:27:35;;;;;;;10.43;2.30;;;23.30;99.90;;;;;;5118656;23;20167;-88
2023/07/13 10:29:43;;;;;;;13.55;2.17;;;23.10;99.90;;;;;;5094641;23;20204;-87
2023/07/13 10:31:45;;;;;;;7.07;1.88;;;23.40;99.90;;;;;;5093757;23;20155;-88